Hudson Mills, Michigan
Current Conditions -  °F | °C
As of 6:53 PM on Saturday 22 Nov 2014 (Local Time) from KARB Reporting Station
Haze Haze  
Wind Chill: 40°   Ceiling: 2600
Heat Index: 44°   Visibility: 6mi
Dew Point: 41°   Wind: 7mph
Humidity: 89%   Direction: 230°SW
Pressure: 29.95"   Gusts: NA
Location:  42.3528°N, 83.8974°W
Report Text: KARB 222353Z 23006KT 6SM BR OVC026 07/05 A2995 RMK AO2 RAB08E21 SLP149 P0001 60001 T00670050 10072 20028 55001
Loading
Personal Weather Stations






























Interactive Weather Map New forecast layout! Learn more

10-Day Weather Forecast

Advertisements
Track Severe Weather on mobile